createdAt,value
2023-01-19T00:01:40.299Z,99939.84
2023-01-19T00:04:06.969Z,99943.16
2023-01-19T00:06:33.485Z,99943.94
2023-01-19T00:09:00.002Z,99939.72
2023-01-19T00:11:26.400Z,99937.09
2023-01-19T00:13:53.626Z,99925.50
2023-01-19T00:16:22.822Z,99919.47
2023-01-19T00:18:51.137Z,99921.53
2023-01-19T00:21:18.106Z,99917.72
2023-01-19T00:23:47.379Z,99911.50
2023-01-19T00:26:16.156Z,99909.31
2023-01-19T00:28:44.002Z,99896.78
2023-01-19T00:31:10.586Z,99899.63
2023-01-19T00:33:37.327Z,99911.13
2023-01-19T00:36:04.624Z,99906.13
2023-01-19T00:38:31.065Z,99913.41
2023-01-19T00:40:57.424Z,99909.19
2023-01-19T00:43:23.781Z,99902.59
2023-01-19T00:45:50.242Z,99906.22
2023-01-19T00:48:16.610Z,99903.84
2023-01-19T00:50:42.968Z,99902.00
2023-01-19T00:53:09.365Z,99909.50
2023-01-19T00:55:35.906Z,99907.91
2023-01-19T00:58:03.043Z,99911.56
2023-01-19T01:00:29.609Z,99908.13
2023-01-19T01:02:56.200Z,99911.22
2023-01-19T01:05:23.062Z,99911.44
2023-01-19T01:07:50.489Z,99908.69
2023-01-19T01:10:18.831Z,99912.09
2023-01-19T01:12:56.032Z,99913.34
2023-01-19T01:15:26.490Z,99912.19
2023-01-19T01:17:52.995Z,99912.50
2023-01-19T01:20:27.784Z,99915.09
2023-01-19T01:22:55.238Z,99923.53
2023-01-19T01:25:23.248Z,99912.50
2023-01-19T01:27:50.318Z,99916.16
2023-01-19T01:30:17.492Z,99921.00
2023-01-19T01:32:43.877Z,99914.97
2023-01-19T01:35:10.369Z,99919.63
2023-01-19T01:37:37.337Z,99921.88
2023-01-19T01:40:05.467Z,99911.06
2023-01-19T01:42:32.842Z,99912.09
2023-01-19T01:45:01.910Z,99912.53
2023-01-19T01:47:34.236Z,99914.00
2023-01-19T01:50:23.682Z,99920.69
2023-01-19T01:53:06.387Z,99921.13
2023-01-19T01:55:36.452Z,99918.94
2023-01-19T01:58:04.010Z,99933.63
2023-01-19T02:00:50.921Z,99936.44
2023-01-19T02:03:17.681Z,99936.09
2023-01-19T02:05:44.760Z,99932.06
2023-01-19T02:08:45.313Z,99934.41
2023-01-19T02:11:30.327Z,99926.19
2023-01-19T02:13:56.863Z,99939.66
2023-01-19T02:16:23.470Z,99942.63
2023-01-19T02:18:49.914Z,99947.06
2023-01-19T02:21:20.067Z,99947.28
2023-01-19T02:23:54.560Z,99951.53
2023-01-19T02:26:27.298Z,99960.16
2023-01-19T02:28:57.917Z,99962.78
2023-01-19T02:31:25.320Z,99973.63
2023-01-19T02:33:52.737Z,99971.19
2023-01-19T02:36:23.140Z,99966.19
2023-01-19T02:38:50.711Z,99981.66
2023-01-19T02:41:20.375Z,99989.91
2023-01-19T02:43:47.195Z,99983.94
2023-01-19T02:46:15.501Z,99986.16
2023-01-19T02:48:42.532Z,99995.16
2023-01-19T02:51:15.482Z,99979.31
2023-01-19T02:54:05.464Z,99989.63
2023-01-19T02:56:44.088Z,99985.56
2023-01-19T02:59:19.806Z,99997.84
2023-01-19T03:02:17.791Z,99990.63
2023-01-19T03:04:55.040Z,99998.25
2023-01-19T03:07:27.685Z,99988.38
2023-01-19T03:10:12.058Z,99985.19
2023-01-19T03:12:52.778Z,99986.00
2023-01-19T03:15:23.334Z,99984.16
2023-01-19T03:17:50.616Z,100000.59
2023-01-19T03:20:21.894Z,100000.81
2023-01-19T03:22:51.179Z,99988.53
2023-01-19T03:25:19.172Z,99988.53
2023-01-19T03:27:47.096Z,99997.75
2023-01-19T03:30:18.472Z,100005.03
2023-01-19T03:32:48.920Z,100002.63
2023-01-19T03:35:16.847Z,99998.22
2023-01-19T03:37:45.277Z,100017.31
2023-01-19T03:40:12.288Z,100019.91
2023-01-19T03:42:39.039Z,100016.25
2023-01-19T03:45:06.092Z,100020.50
2023-01-19T03:47:33.401Z,100016.50
2023-01-19T03:50:02.415Z,100025.34
2023-01-19T03:52:32.313Z,100024.56
2023-01-19T03:54:59.879Z,100041.81
2023-01-19T03:57:26.310Z,100034.44
2023-01-19T03:59:53.336Z,100037.03
2023-01-19T04:02:19.776Z,100044.06
2023-01-19T04:04:46.234Z,100042.03
2023-01-19T04:07:12.613Z,100040.66
2023-01-19T04:09:39.041Z,100047.13
2023-01-19T04:12:05.491Z,100050.75
2023-01-19T04:14:31.915Z,100049.75
2023-01-19T04:16:58.289Z,100046.50
2023-01-19T04:19:25.322Z,100054.16
2023-01-19T04:21:51.876Z,100058.56
2023-01-19T04:24:18.365Z,100054.34
2023-01-19T04:26:44.898Z,100050.94
2023-01-19T04:29:11.341Z,100053.56
2023-01-19T04:31:37.743Z,100061.03
2023-01-19T04:34:04.321Z,100065.03
2023-01-19T04:36:31.273Z,100062.44
2023-01-19T04:38:57.722Z,100060.03
2023-01-19T04:41:24.123Z,100061.84
2023-01-19T04:43:50.611Z,100070.47
2023-01-19T04:46:17.089Z,100061.84
2023-01-19T04:48:43.590Z,100073.88
2023-01-19T04:51:10.081Z,100076.50
2023-01-19T04:53:36.546Z,100078.53
2023-01-19T04:56:02.981Z,100090.59
2023-01-19T04:58:29.369Z,100091.00
2023-01-19T05:00:55.768Z,100096.03
2023-01-19T05:03:22.171Z,100101.84
2023-01-19T05:05:48.568Z,100103.03
2023-01-19T05:08:15.004Z,100111.50
2023-01-19T05:10:41.368Z,100103.66
2023-01-19T05:13:07.727Z,100105.44
2023-01-19T05:15:34.142Z,100107.06
2023-01-19T05:18:00.632Z,100108.88
2023-01-19T05:20:27.101Z,100110.25
2023-01-19T05:22:53.590Z,100116.28
2023-01-19T05:25:20.152Z,100111.44
2023-01-19T05:27:46.528Z,100112.00
2023-01-19T05:30:13.806Z,100114.41
2023-01-19T05:32:40.209Z,100125.25
2023-01-19T05:35:07.118Z,100127.25
2023-01-19T05:37:33.522Z,100118.19
2023-01-19T05:39:59.943Z,100124.59
2023-01-19T05:42:26.374Z,100118.94
2023-01-19T05:44:52.812Z,100122.94
2023-01-19T05:47:19.220Z,100125.13
2023-01-19T05:49:45.606Z,100120.25
2023-01-19T05:52:11.974Z,100123.47
2023-01-19T05:54:40.256Z,100126.25
2023-01-19T05:57:07.061Z,100137.06
2023-01-19T05:59:33.641Z,100136.19
2023-01-19T06:02:00.196Z,100142.84
2023-01-19T06:04:26.833Z,100141.59
2023-01-19T06:06:53.249Z,100156.66
2023-01-19T06:09:19.663Z,100180.56
2023-01-19T06:11:46.619Z,100158.19
2023-01-19T06:14:13.219Z,100149.09
2023-01-19T06:16:39.864Z,100162.53
2023-01-19T06:19:06.914Z,100166.78
2023-01-19T06:21:34.273Z,100186.63
2023-01-19T06:24:00.715Z,100182.53
2023-01-19T06:26:27.241Z,100182.13
2023-01-19T06:28:53.617Z,100175.66
2023-01-19T06:31:20.147Z,100177.84
2023-01-19T06:33:47.036Z,100180.81
2023-01-19T06:36:13.485Z,100193.47
2023-01-19T06:38:40.242Z,100191.66
2023-01-19T06:41:06.673Z,100208.09
2023-01-19T06:43:33.053Z,100200.59
2023-01-19T06:46:00.587Z,100193.31
2023-01-19T06:48:27.217Z,100198.94
2023-01-19T06:50:53.641Z,100206.34
2023-01-19T06:53:22.192Z,100210.94
2023-01-19T06:55:48.567Z,100213.16
2023-01-19T06:58:16.052Z,100214.28
2023-01-19T07:00:43.104Z,100215.13
2023-01-19T07:03:11.603Z,100222.09
2023-01-19T07:05:38.125Z,100223.03
2023-01-19T07:08:04.710Z,100232.50
2023-01-19T07:11:25.948Z,100238.31
2023-01-19T07:13:17.534Z,100239.91
2023-01-19T07:15:44.053Z,100245.75
2023-01-19T07:18:10.524Z,100245.50
2023-01-19T07:20:38.321Z,100250.53
2023-01-19T07:23:04.747Z,100257.16
2023-01-19T07:25:31.412Z,100252.72
2023-01-19T07:28:01.265Z,100264.19
2023-01-19T07:30:28.133Z,100267.19
2023-01-19T07:32:58.554Z,100272.06
2023-01-19T07:35:25.623Z,100280.91
2023-01-19T07:37:51.989Z,100279.63
2023-01-19T07:40:18.414Z,100283.06
2023-01-19T07:42:48.762Z,100290.34
2023-01-19T07:45:16.786Z,100291.72
2023-01-19T07:47:44.513Z,100305.16
2023-01-19T07:50:12.718Z,100318.88
2023-01-19T07:52:39.138Z,100322.66
2023-01-19T07:55:06.227Z,100318.22
2023-01-19T07:57:32.616Z,100316.16
2023-01-19T07:59:59.269Z,100311.75
2023-01-19T08:02:25.838Z,100315.94
2023-01-19T08:04:52.413Z,100316.75
2023-01-19T08:07:18.825Z,100321.56
2023-01-19T08:09:45.253Z,100320.34
2023-01-19T08:12:11.693Z,100330.94
2023-01-19T08:14:38.153Z,100333.13
2023-01-19T08:17:04.527Z,100342.34
2023-01-19T08:19:30.941Z,100342.97
2023-01-19T08:21:58.880Z,100335.47
2023-01-19T08:24:28.444Z,100345.69
2023-01-19T08:27:02.062Z,100350.38
2023-01-19T08:29:30.714Z,100354.50
2023-01-19T08:31:59.979Z,100365.34
2023-01-19T08:34:27.016Z,100366.97
2023-01-19T08:36:53.400Z,100369.16
2023-01-19T08:39:19.870Z,100374.19
2023-01-19T08:41:47.342Z,100382.63
2023-01-19T08:44:13.775Z,100383.41
2023-01-19T08:46:40.154Z,100386.03
2023-01-19T08:49:06.580Z,100397.13
2023-01-19T08:51:33.241Z,100384.44
2023-01-19T08:53:59.612Z,100395.28
2023-01-19T08:56:26.416Z,100395.06
2023-01-19T08:59:07.794Z,100394.09
2023-01-19T09:01:37.092Z,100400.91
2023-01-19T09:04:03.697Z,100403.31
2023-01-19T09:06:30.075Z,100398.66
2023-01-19T09:08:57.512Z,100402.69
2023-01-19T09:11:23.893Z,100403.47
2023-01-19T09:13:50.353Z,100406.09
2023-01-19T09:16:16.811Z,100406.66
2023-01-19T09:18:44.973Z,100411.69
2023-01-19T09:21:11.789Z,100415.69
2023-01-19T09:23:38.355Z,100419.13
2023-01-19T09:26:05.687Z,100412.63
2023-01-19T09:28:32.369Z,100411.63
2023-01-19T09:30:58.950Z,100412.19
2023-01-19T09:33:25.629Z,100423.50
2023-01-19T09:35:52.304Z,100418.81
2023-01-19T09:38:19.775Z,100423.06
2023-01-19T09:40:53.733Z,100416.88
2023-01-19T09:43:35.225Z,100420.50
2023-01-19T09:46:06.863Z,100429.88
2023-01-19T09:48:42.516Z,100425.09
2023-01-19T09:51:14.221Z,100435.97
2023-01-19T09:54:16.227Z,100436.47
2023-01-19T09:56:43.845Z,100442.78
2023-01-19T09:59:25.073Z,100440.03
2023-01-19T10:02:16.338Z,100436.47
2023-01-19T10:04:44.537Z,100445.34
2023-01-19T10:07:16.822Z,100435.69
2023-01-19T10:09:52.841Z,100439.13
2023-01-19T10:12:56.883Z,100441.38
2023-01-19T10:15:34.405Z,100448.69
2023-01-19T10:18:03.875Z,100444.16
2023-01-19T10:20:34.486Z,100449.84
2023-01-19T10:23:02.229Z,100449.63
2023-01-19T10:25:28.901Z,100451.19
2023-01-19T10:27:55.547Z,100458.84
2023-01-19T10:30:24.548Z,100447.44
2023-01-19T10:32:51.390Z,100462.06
2023-01-19T10:35:26.398Z,100458.41
2023-01-19T10:37:58.817Z,100460.81
2023-01-19T10:40:52.916Z,100453.97
2023-01-19T10:43:34.624Z,100457.50
2023-01-19T10:46:05.786Z,100455.38
2023-01-19T10:48:42.037Z,100454.00
2023-01-19T10:51:10.396Z,100463.41
2023-01-19T10:53:37.400Z,100456.88
2023-01-19T10:56:16.552Z,100458.38
2023-01-19T10:58:43.011Z,100457.22
2023-01-19T11:01:17.658Z,100459.50
2023-01-19T11:03:44.591Z,100457.22
2023-01-19T11:06:13.985Z,100460.13
2023-01-19T11:08:40.755Z,100462.28
2023-01-19T11:11:10.203Z,100468.34
2023-01-19T11:13:36.902Z,100467.53
2023-01-19T11:16:07.784Z,100458.50
2023-01-19T11:18:36.274Z,100469.94
2023-01-19T11:21:16.226Z,100468.44
2023-01-19T11:23:50.106Z,100471.63
2023-01-19T11:26:50.351Z,100458.13
2023-01-19T11:29:25.594Z,100462.59
2023-01-19T11:31:53.124Z,100470.25
2023-01-19T11:34:34.654Z,100470.13
2023-01-19T11:37:04.330Z,100463.72
2023-01-19T11:39:35.296Z,100468.50
2023-01-19T11:42:03.211Z,100462.91
2023-01-19T11:44:34.417Z,100475.03
2023-01-19T11:47:04.675Z,100481.84
2023-01-19T11:49:38.381Z,100475.47
2023-01-19T11:52:05.921Z,100479.22
2023-01-19T11:54:36.864Z,100477.06
2023-01-19T11:57:11.519Z,100474.31
2023-01-19T11:59:37.923Z,100470.78
2023-01-19T12:02:14.391Z,100480.13
2023-01-19T12:04:42.520Z,100473.41
2023-01-19T12:07:10.605Z,100474.09
2023-01-19T12:09:42.748Z,100484.03
2023-01-19T12:12:30.855Z,100473.28
2023-01-19T12:14:59.705Z,100468.59
2023-01-19T12:17:29.608Z,100466.28
2023-01-19T12:20:17.834Z,100471.63
2023-01-19T12:22:52.640Z,100471.97
2023-01-19T12:25:25.394Z,100474.59
2023-01-19T12:27:52.184Z,100462.88
2023-01-19T12:30:29.172Z,100459.53
2023-01-19T12:33:21.356Z,100475.06
2023-01-19T12:35:53.915Z,100474.25
2023-01-19T12:38:52.816Z,100472.66
2023-01-19T12:41:35.838Z,100473.09
2023-01-19T12:44:11.775Z,100482.94
2023-01-19T12:47:03.389Z,100481.19
2023-01-19T12:49:38.916Z,100486.44
2023-01-19T12:52:41.011Z,100490.09
2023-01-19T12:55:13.473Z,100487.25
2023-01-19T12:57:48.794Z,100485.31
2023-01-19T13:00:24.217Z,100496.72
2023-01-19T13:02:55.899Z,100493.31
2023-01-19T13:05:24.876Z,100491.59
2023-01-19T13:08:06.560Z,100497.75
2023-01-19T13:11:09.481Z,100497.81
2023-01-19T13:13:42.219Z,100496.28
2023-01-19T13:16:29.542Z,100493.72
2023-01-19T13:19:13.284Z,100499.13
2023-01-19T13:21:42.405Z,100496.28
2023-01-19T13:24:22.246Z,100499.56
2023-01-19T13:26:48.521Z,100497.66
2023-01-19T13:29:34.439Z,100496.34
2023-01-19T13:32:03.911Z,100498.53
2023-01-19T13:34:36.167Z,100495.94
2023-01-19T13:37:04.316Z,100497.44
2023-01-19T13:39:37.429Z,100500.50
2023-01-19T13:42:14.451Z,100497.16
2023-01-19T13:44:43.529Z,100500.75
2023-01-19T13:47:24.184Z,100503.66
2023-01-19T13:49:56.349Z,100510.41
2023-01-19T13:52:30.568Z,100516.50
2023-01-19T13:55:03.254Z,100514.44
2023-01-19T13:57:39.650Z,100516.03
2023-01-19T14:00:12.603Z,100523.31
2023-01-19T14:03:00.037Z,100518.22
2023-01-19T14:05:31.457Z,100525.88
2023-01-19T14:08:01.544Z,100522.00
2023-01-19T14:10:28.273Z,100530.44
2023-01-19T14:12:59.839Z,100527.38
2023-01-19T14:15:27.231Z,100531.38
2023-01-19T14:18:21.597Z,100541.41
2023-01-19T14:21:01.841Z,100538.53
2023-01-19T14:23:47.993Z,100549.03
2023-01-19T14:26:39.243Z,100543.78
2023-01-19T14:29:28.869Z,100550.09
2023-01-19T14:32:01.376Z,100547.38
2023-01-19T14:34:41.277Z,100552.28
2023-01-19T14:37:21.417Z,100558.31
2023-01-19T14:39:51.238Z,100559.03
2023-01-19T14:42:21.514Z,100557.44
2023-01-19T14:44:51.099Z,100555.63
2023-01-19T14:47:37.232Z,100556.50
2023-01-19T14:50:19.509Z,100559.47
2023-01-19T14:52:52.996Z,100551.03
2023-01-19T14:55:25.094Z,100558.16
2023-01-19T14:57:51.529Z,100560.34
2023-01-19T15:00:19.532Z,100559.06
2023-01-19T15:02:46.877Z,100564.69
2023-01-19T15:05:14.099Z,100560.00
2023-01-19T15:07:42.088Z,100556.22
2023-01-19T15:10:18.641Z,100565.16
2023-01-19T15:12:45.301Z,100565.41
2023-01-19T15:15:16.458Z,100567.25
2023-01-19T15:17:43.008Z,100561.09
2023-01-19T15:20:14.974Z,100571.81
2023-01-19T15:22:41.365Z,100566.91
2023-01-19T15:25:08.288Z,100567.16
2023-01-19T15:27:34.863Z,100583.31
2023-01-19T15:30:01.241Z,100578.63
2023-01-19T15:32:27.700Z,100578.41
2023-01-19T15:34:57.141Z,100574.56
2023-01-19T15:37:24.961Z,100581.84
2023-01-19T15:39:51.318Z,100583.66
2023-01-19T15:42:17.682Z,100583.19
2023-01-19T15:44:44.984Z,100589.28
2023-01-19T15:47:11.433Z,100599.53
2023-01-19T15:49:38.054Z,100596.91
2023-01-19T15:52:04.644Z,100594.28
2023-01-19T15:54:31.112Z,100599.31
2023-01-19T15:56:57.520Z,100593.06
2023-01-19T15:59:24.146Z,100600.94
2023-01-19T16:01:50.727Z,100596.13
2023-01-19T16:04:18.180Z,100601.72
2023-01-19T16:06:44.696Z,100610.97
2023-01-19T16:09:16.664Z,100607.78
2023-01-19T16:11:43.090Z,100604.00
2023-01-19T16:14:09.535Z,100610.72
2023-01-19T16:16:36.065Z,100614.16
2023-01-19T16:19:02.493Z,100613.00
2023-01-19T16:21:29.002Z,100619.03
2023-01-19T16:23:55.605Z,100611.22
2023-01-19T16:26:30.909Z,100621.34
2023-01-19T16:28:59.040Z,100624.59
2023-01-19T16:31:25.950Z,100632.22
2023-01-19T16:33:52.362Z,100637.13
2023-01-19T16:36:18.845Z,100628.44
2023-01-19T16:38:45.214Z,100633.91
2023-01-19T16:41:11.644Z,100638.16
2023-01-19T16:43:38.004Z,100635.31
2023-01-19T16:46:04.586Z,100640.09
2023-01-19T16:48:32.298Z,100643.56
2023-01-19T16:51:05.832Z,100652.09
2023-01-19T16:53:36.964Z,100653.25
2023-01-19T16:56:07.979Z,100651.88
2023-01-19T16:58:34.548Z,100653.25
2023-01-19T17:01:06.645Z,100649.66
2023-01-19T17:03:33.180Z,100656.22
2023-01-19T17:05:59.552Z,100655.88
2023-01-19T17:08:25.996Z,100657.84
2023-01-19T17:10:52.408Z,100666.34
2023-01-19T17:13:18.837Z,100676.84
2023-01-19T17:15:45.245Z,100672.63
2023-01-19T17:18:11.722Z,100674.22
2023-01-19T17:20:38.082Z,100681.09
2023-01-19T17:23:04.452Z,100680.25
2023-01-19T17:25:30.982Z,100676.84
2023-01-19T17:27:59.994Z,100685.53
2023-01-19T17:30:26.546Z,100681.88
2023-01-19T17:32:53.333Z,100677.63
2023-01-19T17:35:19.713Z,100687.94
2023-01-19T17:37:46.149Z,100683.50
2023-01-19T17:40:15.104Z,100682.47
2023-01-19T17:42:41.909Z,100676.63
2023-01-19T17:45:10.812Z,100681.44
2023-01-19T17:47:38.429Z,100684.06
2023-01-19T17:50:05.411Z,100689.13
2023-01-19T17:52:31.839Z,100693.34
2023-01-19T17:54:58.459Z,100689.69
2023-01-19T17:57:24.915Z,100690.50
2023-01-19T17:59:51.385Z,100692.31
2023-01-19T18:02:17.865Z,100691.28
2023-01-19T18:04:44.317Z,100696.75
2023-01-19T18:07:10.750Z,100690.69
2023-01-19T18:09:37.188Z,100694.38
2023-01-19T18:12:03.735Z,100699.38
2023-01-19T18:14:30.148Z,100699.63
2023-01-19T18:16:56.696Z,100693.53
2023-01-19T18:19:23.109Z,100694.81
2023-01-19T18:21:49.548Z,100701.88
2023-01-19T18:24:15.965Z,100709.97
2023-01-19T18:26:42.700Z,100709.16
2023-01-19T18:29:09.221Z,100704.16
2023-01-19T18:31:35.670Z,100704.16
2023-01-19T18:34:02.193Z,100710.59
2023-01-19T18:36:28.738Z,100711.63
2023-01-19T18:38:55.134Z,100707.41
2023-01-19T18:41:21.663Z,100711.28
2023-01-19T18:43:48.333Z,100713.28
2023-01-19T18:46:15.393Z,100722.22
2023-01-19T18:48:41.897Z,100724.25
2023-01-19T18:51:10.912Z,100732.56
2023-01-19T18:53:37.615Z,100740.66
2023-01-19T18:56:04.761Z,100731.63
2023-01-19T18:58:32.872Z,100734.44
2023-01-19T19:01:00.429Z,100743.56
2023-01-19T19:03:27.532Z,100765.59
2023-01-19T19:05:54.155Z,100761.22
2023-01-19T19:08:20.656Z,100761.44
2023-01-19T19:10:47.371Z,100770.69
2023-01-19T19:13:15.378Z,100769.31
2023-01-19T19:15:41.871Z,100776.81
2023-01-19T19:18:08.965Z,100776.22
2023-01-19T19:20:38.225Z,100784.94
2023-01-19T19:23:04.682Z,100787.56
2023-01-19T19:25:32.232Z,100790.19
2023-01-19T19:27:58.655Z,100797.69
2023-01-19T19:30:25.468Z,100792.31
2023-01-19T19:32:56.324Z,100794.19
2023-01-19T19:35:25.907Z,100798.22
2023-01-19T19:37:57.145Z,100814.56
2023-01-19T19:40:25.200Z,100816.47
2023-01-19T19:42:51.568Z,100805.41
2023-01-19T19:45:17.990Z,100821.16
2023-01-19T19:47:44.579Z,100817.94
2023-01-19T19:50:11.816Z,100819.53
2023-01-19T19:52:40.188Z,100815.50
2023-01-19T19:55:08.897Z,100806.88
2023-01-19T19:57:35.405Z,100798.22
2023-01-19T20:00:02.451Z,100801.03
2023-01-19T20:02:28.872Z,100809.13
2023-01-19T20:04:55.308Z,100813.78
2023-01-19T20:07:21.668Z,100828.06
2023-01-19T20:09:48.129Z,100829.72
2023-01-19T20:12:14.493Z,100830.75
2023-01-19T20:14:40.852Z,100830.16
2023-01-19T20:17:07.217Z,100833.38
2023-01-19T20:19:33.705Z,100826.75
2023-01-19T20:22:00.129Z,100835.63
2023-01-19T20:24:26.496Z,100839.50
2023-01-19T20:26:53.196Z,100830.84
2023-01-19T20:29:20.284Z,100835.88
2023-01-19T20:31:52.126Z,100843.56
2023-01-19T20:34:20.490Z,100850.63
2023-01-19T20:36:49.615Z,100854.25
2023-01-19T20:39:17.665Z,100851.03
2023-01-19T20:41:44.893Z,100845.00
2023-01-19T20:44:12.957Z,100848.81
2023-01-19T20:46:39.772Z,100854.31
2023-01-19T20:49:06.407Z,100849.66
2023-01-19T20:51:32.845Z,100849.47
2023-01-19T20:53:59.388Z,100855.91
2023-01-19T20:56:25.759Z,100858.97
2023-01-19T20:58:52.135Z,100860.97
2023-01-19T21:01:23.531Z,100857.38
2023-01-19T21:03:51.155Z,100851.91
2023-01-19T21:06:18.279Z,100852.94
2023-01-19T21:08:45.236Z,100857.97
2023-01-19T21:11:13.145Z,100863.59
2023-01-19T21:13:39.568Z,100856.16
2023-01-19T21:16:06.906Z,100870.28
2023-01-19T21:18:33.328Z,100871.06
2023-01-19T21:20:59.692Z,100862.00
2023-01-19T21:23:27.271Z,100875.50
2023-01-19T21:25:56.855Z,100877.13
2023-01-19T21:28:23.499Z,100879.75
2023-01-19T21:30:50.869Z,100884.19
2023-01-19T21:33:17.532Z,100883.19
2023-01-19T21:35:55.493Z,100889.63
2023-01-19T21:38:23.757Z,100892.66
2023-01-19T21:40:50.399Z,100890.03
2023-01-19T21:43:17.374Z,100889.25
2023-01-19T21:45:43.786Z,100894.47
2023-01-19T21:48:10.195Z,100890.44
2023-01-19T21:50:36.583Z,100894.47
2023-01-19T21:53:03.525Z,100900.31
2023-01-19T21:55:30.028Z,100909.38
2023-01-19T21:57:56.473Z,100922.50
2023-01-19T22:00:23.143Z,100913.84
2023-01-19T22:03:03.140Z,100914.03
2023-01-19T22:05:30.403Z,100912.59
2023-01-19T22:07:56.755Z,100914.22
2023-01-19T22:10:23.110Z,100916.84
2023-01-19T22:12:49.473Z,100924.91
2023-01-19T22:15:16.008Z,100928.09
2023-01-19T22:17:42.392Z,100927.47
2023-01-19T22:20:09.405Z,100943.59
2023-01-19T22:22:35.860Z,100942.00
2023-01-19T22:25:02.366Z,100934.94
2023-01-19T22:27:32.880Z,100944.00
2023-01-19T22:29:59.837Z,100938.78
2023-01-19T22:32:26.218Z,100945.00
2023-01-19T22:34:52.625Z,100948.66
2023-01-19T22:37:19.020Z,100949.66
2023-01-19T22:39:45.369Z,100952.47
2023-01-19T22:42:11.720Z,100955.28
2023-01-19T22:44:38.184Z,100958.72
2023-01-19T22:47:04.722Z,100957.09
2023-01-19T22:49:31.143Z,100953.69
2023-01-19T22:51:57.634Z,100959.72
2023-01-19T22:54:24.165Z,100953.69
2023-01-19T22:56:50.537Z,100952.06
2023-01-19T22:59:16.907Z,100954.66
2023-01-19T23:01:43.808Z,100954.47
2023-01-19T23:04:12.848Z,100958.31
2023-01-19T23:06:39.284Z,100955.06
2023-01-19T23:09:09.826Z,100958.28
2023-01-19T23:11:38.500Z,100957.28
2023-01-19T23:14:10.029Z,100958.91
2023-01-19T23:16:36.464Z,100958.09
2023-01-19T23:19:03.025Z,100956.47
2023-01-19T23:21:30.688Z,100949.84
2023-01-19T23:23:59.170Z,100951.66
2023-01-19T23:26:26.311Z,100959.50
2023-01-19T23:28:55.156Z,100955.47
2023-01-19T23:31:22.643Z,100957.09
2023-01-19T23:33:50.491Z,100957.28
2023-01-19T23:36:17.953Z,100960.09
2023-01-19T23:38:48.979Z,100958.06
2023-01-19T23:41:15.453Z,100961.31
2023-01-19T23:43:41.910Z,100954.63
2023-01-19T23:46:09.523Z,100965.28
2023-01-19T23:48:36.551Z,100964.50
2023-01-19T23:51:11.199Z,100974.16
2023-01-19T23:53:37.950Z,100976.38
2023-01-19T23:56:17.404Z,100976.34
2023-01-19T23:58:45.050Z,100978.59
